createdAt,value
2022-08-31T00:00:18.071Z,-9830.78
2022-08-31T00:05:23.098Z,-9313.25
2022-08-31T00:10:32.407Z,-10089.50
2022-08-31T00:15:40.731Z,-10089.50
2022-08-31T00:20:47.749Z,-10089.50
2022-08-31T00:25:51.501Z,-10089.50
2022-08-31T00:30:55.028Z,-9572.00
2022-08-31T00:36:00.108Z,-9313.25
2022-08-31T00:41:05.872Z,-9830.78
2022-08-31T00:46:10.905Z,-9830.78
2022-08-31T00:51:18.974Z,-9572.00
2022-08-31T00:56:24.163Z,-10089.50
2022-08-31T01:01:28.774Z,-10089.50
2022-08-31T01:06:33.976Z,-10089.50
2022-08-31T01:11:39.784Z,-10865.63
2022-08-31T01:16:47.097Z,-11382.94
2022-08-31T01:22:00.686Z,-11124.28
2022-08-31T01:27:07.864Z,-10606.94
2022-08-31T01:32:11.455Z,-10865.63
2022-08-31T01:37:15.324Z,-10606.94
2022-08-31T01:42:20.791Z,-10348.22
2022-08-31T01:47:24.599Z,-9830.78
2022-08-31T01:52:29.468Z,-9572.00
2022-08-31T01:57:34.760Z,-9313.25
2022-08-31T02:02:58.288Z,-9054.47
2022-08-31T02:08:01.890Z,-8795.66
2022-08-31T02:13:08.781Z,-8795.66
2022-08-31T02:18:13.499Z,-8019.13
2022-08-31T02:23:17.257Z,-7760.25
2022-08-31T02:28:22.675Z,-7501.34
2022-08-31T02:33:28.530Z,-6724.56
2022-08-31T02:38:32.390Z,-5170.53
2022-08-31T02:43:37.285Z,-4652.38
2022-08-31T02:48:40.851Z,-3615.84
2022-08-31T02:53:47.074Z,-3875.00
2022-08-31T02:58:55.183Z,-3356.69
2022-08-31T03:04:00.933Z,-3615.84
2022-08-31T03:09:05.456Z,-4393.25
2022-08-31T03:14:10.404Z,-5429.56
2022-08-31T03:19:13.952Z,-5429.56
2022-08-31T03:24:19.052Z,-5688.59
2022-08-31T03:29:26.779Z,-5947.63
2022-08-31T03:34:54.706Z,-4134.16
2022-08-31T03:39:58.649Z,-3356.69
2022-08-31T03:45:04.168Z,-1801.28
2022-08-31T03:50:11.328Z,14.16
2022-08-31T03:55:25.401Z,792.47
2022-08-31T04:00:31.280Z,2349.56
2022-08-31T04:05:44.613Z,2609.13
2022-08-31T04:10:53.360Z,3907.28
2022-08-31T04:16:21.603Z,5205.84
2022-08-31T04:21:45.887Z,4946.09
2022-08-31T04:26:52.477Z,4686.38
2022-08-31T04:31:57.300Z,5465.63
2022-08-31T04:37:02.037Z,6504.84
2022-08-31T04:42:06.556Z,7024.59
2022-08-31T04:47:12.424Z,8064.25
2022-08-31T04:52:15.916Z,8324.19
2022-08-31T04:57:19.437Z,8844.16
2022-08-31T05:02:24.359Z,9624.25
2022-08-31T05:07:35.450Z,12485.94
2022-08-31T05:12:39.161Z,13006.47
2022-08-31T05:17:44.045Z,14568.47
2022-08-31T05:22:47.612Z,16391.59
2022-08-31T05:27:51.148Z,17954.97
2022-08-31T05:32:59.340Z,22387.94
2022-08-31T05:38:02.827Z,24214.75
2022-08-31T05:43:07.252Z,24736.84
2022-08-31T05:48:12.131Z,26042.41
2022-08-31T05:53:17.050Z,27087.16
2022-08-31T05:58:21.400Z,29622.69
2022-08-31T06:03:27.296Z,33351.38
2022-08-31T06:08:30.873Z,37881.66
2022-08-31T06:13:34.862Z,36842.19
2022-08-31T06:18:41.028Z,37564.47
2022-08-31T06:23:45.287Z,38686.00
2022-08-31T06:28:50.574Z,36709.22
2022-08-31T06:33:56.673Z,37902.13
2022-08-31T06:39:32.299Z,36295.97
2022-08-31T06:44:51.303Z,37591.06
2022-08-31T06:49:58.273Z,37752.75
2022-08-31T06:55:02.276Z,38069.94
2022-08-31T07:00:28.970Z,37492.84
2022-08-31T07:05:44.416Z,34023.94
2022-08-31T07:10:48.438Z,33500.59
2022-08-31T07:15:52.128Z,33525.13
2022-08-31T07:21:08.238Z,32817.91
2022-08-31T07:26:13.794Z,28346.56
2022-08-31T07:31:17.617Z,27719.88
2022-08-31T07:36:24.781Z,26303.56
2022-08-31T07:41:58.974Z,24475.78
2022-08-31T07:47:04.035Z,25259.00
2022-08-31T07:52:11.478Z,40002.34
2022-08-31T07:57:37.942Z,48504.81
2022-08-31T08:02:50.802Z,50298.63
2022-08-31T08:08:09.410Z,51452.53
2022-08-31T08:13:33.207Z,51844.78
2022-08-31T08:18:44.429Z,52126.16
2022-08-31T08:23:52.740Z,52200.09
2022-08-31T08:29:15.889Z,52327.44
2022-08-31T08:34:22.116Z,52315.13
2022-08-31T08:39:37.538Z,52317.16
2022-08-31T08:44:50.148Z,52220.63
2022-08-31T08:49:56.226Z,52089.19
2022-08-31T08:55:06.853Z,51937.19
2022-08-31T09:00:15.710Z,51772.91
2022-08-31T09:05:45.295Z,51604.50
2022-08-31T09:11:17.733Z,51275.94
2022-08-31T09:16:40.250Z,51006.97
2022-08-31T09:21:48.008Z,50581.94
2022-08-31T09:27:17.485Z,50167.25
2022-08-31T09:32:26.332Z,50081.03
2022-08-31T09:37:35.451Z,49600.72
2022-08-31T09:42:40.576Z,49594.56
2022-08-31T09:47:53.001Z,49752.59
2022-08-31T09:53:25.346Z,49526.81
2022-08-31T09:58:31.025Z,49896.28
2022-08-31T10:03:38.272Z,49937.34
2022-08-31T10:08:46.300Z,50481.34
2022-08-31T10:13:58.898Z,50477.25
2022-08-31T10:19:07.348Z,50811.91
2022-08-31T10:24:21.930Z,50816.00
2022-08-31T10:29:42.082Z,51130.16
2022-08-31T10:35:07.049Z,51257.47
2022-08-31T10:40:27.383Z,51440.22
2022-08-31T10:45:37.845Z,51565.50
2022-08-31T10:50:49.052Z,51641.47
2022-08-31T10:56:00.092Z,51816.03
2022-08-31T11:01:14.323Z,51816.03
2022-08-31T11:06:24.887Z,51875.59
2022-08-31T11:11:42.348Z,51982.38
2022-08-31T11:17:06.497Z,52159.00
2022-08-31T11:22:29.732Z,52093.28
2022-08-31T11:27:37.142Z,52128.22
2022-08-31T11:32:47.299Z,52146.69
2022-08-31T11:37:56.838Z,52187.78
2022-08-31T11:43:01.543Z,52146.69
2022-08-31T11:48:11.642Z,52280.19
2022-08-31T11:53:25.479Z,52290.47
2022-08-31T11:58:33.848Z,52395.22
2022-08-31T12:03:46.159Z,52364.41
2022-08-31T12:08:54.741Z,52360.31
2022-08-31T12:14:05.585Z,52372.63
2022-08-31T12:19:55.745Z,52376.72
2022-08-31T12:25:12.869Z,52458.88
2022-08-31T12:30:21.257Z,52454.78
2022-08-31T12:35:27.214Z,52473.28
2022-08-31T12:40:33.754Z,52438.34
2022-08-31T12:46:20.185Z,52475.31
2022-08-31T12:51:39.904Z,52479.44
2022-08-31T12:56:52.405Z,52473.28
2022-08-31T13:01:56.158Z,52495.88
2022-08-31T13:07:14.780Z,52489.69
2022-08-31T13:12:25.008Z,52487.66
2022-08-31T13:17:33.405Z,52467.09
2022-08-31T13:22:41.416Z,52536.94
2022-08-31T13:27:52.551Z,52499.97
2022-08-31T13:32:57.132Z,52524.63
2022-08-31T13:38:05.383Z,52536.94
2022-08-31T13:43:11.880Z,52520.50
2022-08-31T13:48:21.653Z,52524.63
2022-08-31T13:53:40.563Z,52541.06
2022-08-31T13:58:45.875Z,52551.31
2022-08-31T14:03:57.319Z,52547.22
2022-08-31T14:09:05.280Z,52578.03
2022-08-31T14:14:12.918Z,52565.69
2022-08-31T14:19:31.084Z,52563.66
2022-08-31T14:24:34.709Z,52555.44
2022-08-31T14:29:41.099Z,52551.31
2022-08-31T14:34:48.766Z,52573.91
2022-08-31T14:39:55.372Z,52551.31
2022-08-31T14:45:03.055Z,52526.69
2022-08-31T14:50:07.528Z,52565.69
2022-08-31T14:55:13.422Z,52565.69
2022-08-31T15:00:22.121Z,52571.88
2022-08-31T15:05:26.838Z,52569.81
2022-08-31T15:10:30.307Z,52582.13
2022-08-31T15:15:36.195Z,52557.50
2022-08-31T15:20:41.662Z,52547.22
2022-08-31T15:25:45.298Z,52580.09
2022-08-31T15:30:50.290Z,52547.22
2022-08-31T15:36:03.264Z,52539.00
2022-08-31T15:41:08.125Z,52536.94
2022-08-31T15:46:14.442Z,52565.69
2022-08-31T15:51:21.920Z,52553.38
2022-08-31T15:56:26.150Z,52573.91
2022-08-31T16:01:31.268Z,52571.88
2022-08-31T16:06:37.409Z,52545.16
2022-08-31T16:11:41.021Z,52547.22
2022-08-31T16:16:48.749Z,52573.91
2022-08-31T16:21:52.705Z,52573.91
2022-08-31T16:26:58.882Z,52512.28
2022-08-31T16:32:04.665Z,52528.72
2022-08-31T16:37:09.152Z,52504.09
2022-08-31T16:42:14.466Z,52571.88
2022-08-31T16:47:20.217Z,52545.16
2022-08-31T16:52:26.786Z,52545.16
2022-08-31T16:57:32.700Z,52530.78
2022-08-31T17:02:37.715Z,52536.94
2022-08-31T17:07:42.848Z,52536.94
2022-08-31T17:12:48.422Z,52543.09
2022-08-31T17:17:53.517Z,52512.28
2022-08-31T17:22:57.143Z,52504.09
2022-08-31T17:28:07.696Z,52483.53
2022-08-31T17:33:14.287Z,52518.47
2022-08-31T17:38:18.430Z,52504.09
2022-08-31T17:43:22.206Z,52477.38
2022-08-31T17:48:30.007Z,52483.53
2022-08-31T17:53:34.330Z,52497.91
2022-08-31T17:58:38.162Z,52522.56
2022-08-31T18:03:43.119Z,52497.91
2022-08-31T18:08:46.772Z,52471.22
2022-08-31T18:13:53.623Z,52483.53
2022-08-31T18:18:58.647Z,52504.09
2022-08-31T18:24:02.400Z,52508.19
2022-08-31T18:29:08.719Z,52477.38
2022-08-31T18:34:19.085Z,52475.31
2022-08-31T18:39:50.116Z,52469.16
2022-08-31T18:45:06.626Z,52463.00
2022-08-31T18:50:11.806Z,52479.44
2022-08-31T18:55:16.104Z,52481.50
2022-08-31T19:00:19.904Z,52465.06
2022-08-31T19:05:24.727Z,52469.16
2022-08-31T19:10:28.563Z,52450.69
2022-08-31T19:15:36.187Z,52483.53
2022-08-31T19:20:41.448Z,52491.75
2022-08-31T19:25:48.385Z,52491.75
2022-08-31T19:30:51.965Z,52508.19
2022-08-31T19:36:04.554Z,52495.88
2022-08-31T19:41:16.098Z,52467.09
2022-08-31T19:46:21.344Z,52475.31
2022-08-31T19:51:27.959Z,52520.50
2022-08-31T19:56:31.804Z,52483.53
2022-08-31T20:01:35.961Z,52460.94
2022-08-31T20:06:41.819Z,52485.59
2022-08-31T20:11:47.663Z,52479.44
2022-08-31T20:16:52.253Z,52446.56
2022-08-31T20:22:08.011Z,52475.31
2022-08-31T20:27:16.614Z,52495.88
2022-08-31T20:32:23.660Z,52460.94
2022-08-31T20:37:28.759Z,52448.63
2022-08-31T20:42:32.307Z,52469.16
2022-08-31T20:47:53.987Z,52467.09
2022-08-31T20:52:59.221Z,52479.44
2022-08-31T20:58:03.291Z,52485.59
2022-08-31T21:03:07.265Z,52491.75
2022-08-31T21:08:15.431Z,52458.88
2022-08-31T21:13:19.098Z,52469.16
2022-08-31T21:18:23.497Z,52454.78
2022-08-31T21:23:29.421Z,52438.34
2022-08-31T21:28:34.041Z,52477.38
2022-08-31T21:33:37.547Z,52444.50
2022-08-31T21:38:43.456Z,52432.19
2022-08-31T21:43:47.114Z,52405.50
2022-08-31T21:48:52.536Z,52341.81
2022-08-31T21:54:00.129Z,52323.31
2022-08-31T21:59:04.444Z,52198.03
2022-08-31T22:04:09.849Z,52041.94
2022-08-31T22:09:17.253Z,51883.81
2022-08-31T22:14:26.168Z,51657.91
2022-08-31T22:19:29.810Z,51319.06
2022-08-31T22:24:35.917Z,51037.75
2022-08-31T22:29:41.446Z,50725.66
2022-08-31T22:34:46.124Z,50074.88
2022-08-31T22:39:55.225Z,49847.03
2022-08-31T22:44:58.867Z,49015.78
2022-08-31T22:50:02.350Z,47909.78
2022-08-31T22:55:09.126Z,47249.19
2022-08-31T23:00:13.254Z,46650.25
2022-08-31T23:05:18.451Z,46209.31
2022-08-31T23:10:24.145Z,44677.66
2022-08-31T23:15:29.128Z,44202.09
2022-08-31T23:20:32.582Z,42468.41
2022-08-31T23:25:37.376Z,41532.19
2022-08-31T23:30:43.343Z,40252.16
2022-08-31T23:35:47.606Z,39773.03
2022-08-31T23:40:53.993Z,38286.88
2022-08-31T23:46:02.412Z,36132.34
2022-08-31T23:51:07.719Z,34712.97
2022-08-31T23:56:13.053Z,34862.25
